createdAt,value
2022-11-21T00:00:06.454Z,4.01
2022-11-21T00:01:06.431Z,4.05
2022-11-21T00:02:06.461Z,4.05
2022-11-21T00:03:06.427Z,4.06
2022-11-21T00:04:06.449Z,4.05
2022-11-21T00:05:06.385Z,4.10
2022-11-21T00:06:06.379Z,4.10
2022-11-21T00:07:06.419Z,4.08
2022-11-21T00:08:06.354Z,4.04
2022-11-21T00:09:06.445Z,4.01
2022-11-21T00:10:06.377Z,4.14
2022-11-21T00:11:06.311Z,4.13
2022-11-21T00:12:06.314Z,4.10
2022-11-21T00:13:06.281Z,4.16
2022-11-21T00:14:06.273Z,4.12
2022-11-21T00:15:06.265Z,4.14
2022-11-21T00:16:06.344Z,4.13
2022-11-21T00:17:06.261Z,4.08
2022-11-21T00:18:06.268Z,4.13
2022-11-21T00:19:06.221Z,4.01
2022-11-21T00:20:06.204Z,4.08
2022-11-21T00:21:06.226Z,4.12
2022-11-21T00:22:06.227Z,4.12
2022-11-21T00:23:06.183Z,4.05
2022-11-21T00:24:06.209Z,4.06
2022-11-21T00:25:06.186Z,4.13
2022-11-21T00:26:06.141Z,4.05
2022-11-21T00:27:06.174Z,4.14
2022-11-21T00:28:06.188Z,4.10
2022-11-21T00:29:06.110Z,4.04
2022-11-21T00:30:06.118Z,4.13
2022-11-21T00:31:06.077Z,4.13
2022-11-21T00:32:06.078Z,4.10
2022-11-21T00:33:06.074Z,4.08
2022-11-21T00:34:06.087Z,4.14
2022-11-21T00:35:06.030Z,4.08
2022-11-21T00:36:06.030Z,4.13
2022-11-21T00:37:06.031Z,4.05
2022-11-21T00:38:06.000Z,4.16
2022-11-21T00:39:06.061Z,4.10
2022-11-21T00:40:05.993Z,4.17
2022-11-21T00:41:05.968Z,4.16
2022-11-21T00:42:05.990Z,4.13
2022-11-21T00:43:05.955Z,4.14
2022-11-21T00:44:05.949Z,4.19
2022-11-21T00:45:05.988Z,4.16
2022-11-21T00:46:05.953Z,4.13
2022-11-21T00:47:05.916Z,4.19
2022-11-21T00:48:05.888Z,4.17
2022-11-21T00:49:05.888Z,4.19
2022-11-21T00:50:05.883Z,4.28
2022-11-21T00:51:05.893Z,4.19
2022-11-21T00:52:05.948Z,4.17
2022-11-21T00:53:05.865Z,4.20
2022-11-21T00:54:05.833Z,4.14
2022-11-21T00:55:05.837Z,4.22
2022-11-21T00:56:05.834Z,4.19
2022-11-21T00:57:05.793Z,4.17
2022-11-21T00:58:05.829Z,4.19
2022-11-21T00:59:05.790Z,4.17
2022-11-21T01:00:05.768Z,4.13
2022-11-21T01:01:05.848Z,4.13
2022-11-21T01:02:05.752Z,4.12
2022-11-21T01:03:05.752Z,4.10
2022-11-21T01:04:05.826Z,4.13
2022-11-21T01:05:05.713Z,4.14
2022-11-21T01:06:05.692Z,4.13
2022-11-21T01:07:05.728Z,4.17
2022-11-21T01:08:05.673Z,4.19
2022-11-21T01:09:05.673Z,4.12
2022-11-21T01:10:05.698Z,4.10
2022-11-21T01:11:05.647Z,4.14
2022-11-21T01:12:05.619Z,4.08
2022-11-21T01:13:05.628Z,4.12
2022-11-21T01:14:05.606Z,4.13
2022-11-21T01:15:05.577Z,4.04
2022-11-21T01:16:05.611Z,4.12
2022-11-21T01:17:05.570Z,4.12
2022-11-21T01:18:05.558Z,4.16
2022-11-21T01:19:05.554Z,4.10
2022-11-21T01:20:05.525Z,4.06
2022-11-21T01:21:05.523Z,4.08
2022-11-21T01:22:05.615Z,4.01
2022-11-21T01:23:05.518Z,3.99
2022-11-21T01:24:05.523Z,4.02
2022-11-21T01:25:05.494Z,4.02
2022-11-21T01:26:05.458Z,4.04
2022-11-21T01:27:05.538Z,4.01
2022-11-21T01:28:05.515Z,4.06
2022-11-21T01:29:05.472Z,4.06
2022-11-21T01:30:05.409Z,4.01
2022-11-21T01:31:05.415Z,4.01
2022-11-21T01:32:05.406Z,4.02
2022-11-21T01:33:05.402Z,3.95
2022-11-21T01:34:05.462Z,4.04
2022-11-21T01:35:05.379Z,4.05
2022-11-21T01:36:05.367Z,4.02
2022-11-21T01:37:05.342Z,3.95
2022-11-21T01:38:05.339Z,4.02
2022-11-21T01:39:05.309Z,4.04
2022-11-21T01:40:05.461Z,4.01
2022-11-21T01:41:05.295Z,4.02
2022-11-21T01:42:05.291Z,4.01
2022-11-21T01:43:05.301Z,4.05
2022-11-21T01:44:05.257Z,4.04
2022-11-21T01:45:05.276Z,4.01
2022-11-21T01:46:05.261Z,4.02
2022-11-21T01:47:05.231Z,4.01
2022-11-21T01:48:05.248Z,3.87
2022-11-21T01:49:05.219Z,3.92
2022-11-21T01:50:08.180Z,3.94
2022-11-21T01:51:06.217Z,3.84
2022-11-21T01:52:05.189Z,3.94
2022-11-21T01:53:05.175Z,3.80
2022-11-21T01:54:05.242Z,3.83
2022-11-21T01:55:05.233Z,3.84
2022-11-21T01:56:05.140Z,3.84
2022-11-21T01:57:05.271Z,3.87
2022-11-21T01:58:05.225Z,3.81
2022-11-21T01:59:05.162Z,3.84
2022-11-21T02:00:05.092Z,3.84
2022-11-21T02:01:05.170Z,3.91
2022-11-21T02:02:05.057Z,3.88
2022-11-21T02:03:05.089Z,3.87
2022-11-21T02:04:05.024Z,3.86
2022-11-21T02:05:05.055Z,3.87
2022-11-21T02:06:05.026Z,3.83
2022-11-21T02:07:05.039Z,3.83
2022-11-21T02:08:04.987Z,3.81
2022-11-21T02:09:05.019Z,3.87
2022-11-21T02:10:04.976Z,3.96
2022-11-21T02:11:04.985Z,3.78
2022-11-21T02:12:04.939Z,3.94
2022-11-21T02:13:04.945Z,3.88
2022-11-21T02:14:04.959Z,3.95
2022-11-21T02:15:04.942Z,3.92
2022-11-21T02:16:04.898Z,3.94
2022-11-21T02:17:04.940Z,3.94
2022-11-21T02:18:04.903Z,3.88
2022-11-21T02:19:04.863Z,3.95
2022-11-21T02:20:04.887Z,4.01
2022-11-21T02:21:04.872Z,3.98
2022-11-21T02:22:04.826Z,3.96
2022-11-21T02:23:04.830Z,4.02
2022-11-21T02:24:04.866Z,3.98
2022-11-21T02:25:04.802Z,4.01
2022-11-21T02:26:04.785Z,4.01
2022-11-21T02:27:04.852Z,4.05
2022-11-21T02:28:04.756Z,3.95
2022-11-21T02:29:04.788Z,4.02
2022-11-21T02:30:04.753Z,3.96
2022-11-21T02:31:04.725Z,4.06
2022-11-21T02:32:04.721Z,4.02
2022-11-21T02:33:04.806Z,4.01
2022-11-21T02:34:04.703Z,4.04
2022-11-21T02:35:04.750Z,4.05
2022-11-21T02:36:04.676Z,4.12
2022-11-21T02:37:04.670Z,4.05
2022-11-21T02:38:04.642Z,4.10
2022-11-21T02:39:04.700Z,3.96
2022-11-21T02:40:04.637Z,4.12
2022-11-21T02:41:04.630Z,4.05
2022-11-21T02:42:04.604Z,4.01
2022-11-21T02:43:04.596Z,4.12
2022-11-21T02:44:04.585Z,4.14
2022-11-21T02:45:04.703Z,4.12
2022-11-21T02:46:04.588Z,4.06
2022-11-21T02:47:04.565Z,4.14
2022-11-21T02:48:04.734Z,4.12
2022-11-21T02:49:04.548Z,4.08
2022-11-21T02:50:04.585Z,4.10
2022-11-21T02:51:04.574Z,4.01
2022-11-21T02:52:04.508Z,4.08
2022-11-21T02:53:04.479Z,4.13
2022-11-21T02:54:04.485Z,4.06
2022-11-21T02:55:04.579Z,4.04
2022-11-21T02:56:04.446Z,4.04
2022-11-21T02:57:04.464Z,4.05
2022-11-21T02:58:05.459Z,4.14
2022-11-21T02:59:04.404Z,4.13
2022-11-21T03:00:04.412Z,3.99
2022-11-21T03:01:04.448Z,4.12
2022-11-21T03:02:04.369Z,4.12
2022-11-21T03:03:04.466Z,4.10
2022-11-21T03:04:04.388Z,4.08
2022-11-21T03:05:04.385Z,4.06
2022-11-21T03:06:04.328Z,4.14
2022-11-21T03:07:04.399Z,3.99
2022-11-21T03:08:04.325Z,4.05
2022-11-21T03:09:04.359Z,4.05
2022-11-21T03:10:04.311Z,4.01
2022-11-21T03:11:04.448Z,3.92
2022-11-21T03:12:04.304Z,3.94
2022-11-21T03:13:04.258Z,3.91
2022-11-21T03:14:04.251Z,3.88
2022-11-21T03:15:04.260Z,3.87
2022-11-21T03:16:04.221Z,3.87
2022-11-21T03:17:04.220Z,3.80
2022-11-21T03:18:04.207Z,3.86
2022-11-21T03:19:04.240Z,3.81
2022-11-21T03:20:04.170Z,3.77
2022-11-21T03:21:04.325Z,3.74
2022-11-21T03:22:04.168Z,3.65
2022-11-21T03:23:04.139Z,3.63
2022-11-21T03:24:04.142Z,3.69
2022-11-21T03:25:04.132Z,3.73
2022-11-21T03:26:04.132Z,3.76
2022-11-21T03:27:04.178Z,3.68
2022-11-21T03:28:04.094Z,3.66
2022-11-21T03:29:04.119Z,3.68
2022-11-21T03:30:04.058Z,3.66
2022-11-21T03:31:04.188Z,3.73
2022-11-21T03:32:04.150Z,3.62
2022-11-21T03:33:04.079Z,3.70
2022-11-21T03:34:04.101Z,3.65
2022-11-21T03:35:04.015Z,3.66
2022-11-21T03:36:04.020Z,3.68
2022-11-21T03:37:04.088Z,3.65
2022-11-21T03:38:03.976Z,3.73
2022-11-21T03:39:04.066Z,3.69
2022-11-21T03:40:03.971Z,3.62
2022-11-21T03:41:03.947Z,3.66
2022-11-21T03:42:03.964Z,3.68
2022-11-21T03:43:04.005Z,3.74
2022-11-21T03:44:03.898Z,3.65
2022-11-21T03:45:03.932Z,3.70
2022-11-21T03:46:03.890Z,3.70
2022-11-21T03:47:03.884Z,3.69
2022-11-21T03:48:03.888Z,3.63
2022-11-21T03:49:03.866Z,3.66
2022-11-21T03:50:03.871Z,3.66
2022-11-21T03:51:03.951Z,3.69
2022-11-21T03:52:03.821Z,3.62
2022-11-21T03:53:03.842Z,3.62
2022-11-21T03:54:03.797Z,3.58
2022-11-21T03:55:03.785Z,3.60
2022-11-21T03:56:03.774Z,3.60
2022-11-21T03:57:03.823Z,3.59
2022-11-21T03:58:03.745Z,3.62
2022-11-21T03:59:03.744Z,3.59
2022-11-21T04:00:03.798Z,3.60
2022-11-21T04:01:03.805Z,3.62
2022-11-21T04:02:03.904Z,3.58
2022-11-21T04:03:03.768Z,3.59
2022-11-21T04:04:03.711Z,3.55
2022-11-21T04:05:03.661Z,3.58
2022-11-21T04:06:03.665Z,3.59
2022-11-21T04:07:03.743Z,3.62
2022-11-21T04:08:03.664Z,3.58
2022-11-21T04:09:03.683Z,3.59
2022-11-21T04:10:03.621Z,3.58
2022-11-21T04:11:03.654Z,3.66
2022-11-21T04:12:07.470Z,3.59
2022-11-21T04:13:03.592Z,3.58
2022-11-21T04:14:03.584Z,3.58
2022-11-21T04:15:04.624Z,3.63
2022-11-21T04:16:03.554Z,3.62
2022-11-21T04:17:03.570Z,3.68
2022-11-21T04:18:03.548Z,3.68
2022-11-21T04:19:03.539Z,3.60
2022-11-21T04:20:03.540Z,3.63
2022-11-21T04:21:03.692Z,3.68
2022-11-21T04:22:03.616Z,3.69
2022-11-21T04:23:03.475Z,3.65
2022-11-21T04:24:03.487Z,3.69
2022-11-21T04:25:03.472Z,3.69
2022-11-21T04:26:03.439Z,3.76
2022-11-21T04:27:03.458Z,3.73
2022-11-21T04:28:03.458Z,3.69
2022-11-21T04:29:03.460Z,3.65
2022-11-21T04:30:03.423Z,3.74
2022-11-21T04:31:07.002Z,3.73
2022-11-21T04:32:04.431Z,3.68
2022-11-21T04:33:03.382Z,3.69
2022-11-21T04:34:03.382Z,3.69
2022-11-21T04:35:03.357Z,3.62
2022-11-21T04:36:03.347Z,3.74
2022-11-21T04:37:07.510Z,3.69
2022-11-21T04:38:04.340Z,3.76
2022-11-21T04:39:03.299Z,3.73
2022-11-21T04:40:03.285Z,3.70
2022-11-21T04:41:03.289Z,3.69
2022-11-21T04:42:03.280Z,3.65
2022-11-21T04:43:03.255Z,3.69
2022-11-21T04:44:03.354Z,3.65
2022-11-21T04:45:03.237Z,3.76
2022-11-21T04:46:03.231Z,3.69
2022-11-21T04:47:05.575Z,3.65
2022-11-21T04:48:03.202Z,3.70
2022-11-21T04:49:03.201Z,3.65
2022-11-21T04:50:03.223Z,3.65
2022-11-21T04:51:03.153Z,3.70
2022-11-21T04:52:03.156Z,3.69
2022-11-21T04:53:03.149Z,3.80
2022-11-21T04:54:03.128Z,3.66
2022-11-21T04:55:03.137Z,3.68
2022-11-21T04:56:03.277Z,3.73
2022-11-21T04:57:03.107Z,3.70
2022-11-21T04:58:03.079Z,3.68
2022-11-21T04:59:03.087Z,3.78
2022-11-21T05:00:03.084Z,3.69
2022-11-21T05:01:03.090Z,3.70
2022-11-21T05:02:03.264Z,3.70
2022-11-21T05:03:03.037Z,3.70
2022-11-21T05:04:03.032Z,3.70
2022-11-21T05:05:03.000Z,3.70
2022-11-21T05:06:02.999Z,3.73
2022-11-21T05:07:03.079Z,3.74
2022-11-21T05:08:03.058Z,3.91
2022-11-21T05:09:02.987Z,3.84
2022-11-21T05:10:02.964Z,3.83
2022-11-21T05:11:02.935Z,3.68
2022-11-21T05:12:02.972Z,3.70
2022-11-21T05:13:02.956Z,3.86
2022-11-21T05:14:03.077Z,3.94
2022-11-21T05:15:02.890Z,3.86
2022-11-21T05:16:02.882Z,3.87
2022-11-21T05:17:02.880Z,3.83
2022-11-21T05:18:02.884Z,3.87
2022-11-21T05:19:02.847Z,3.86
2022-11-21T05:20:02.890Z,3.84
2022-11-21T05:21:02.862Z,3.83
2022-11-21T05:22:02.815Z,3.78
2022-11-21T05:23:02.815Z,3.88
2022-11-21T05:24:02.798Z,3.86
2022-11-21T05:25:02.781Z,3.83
2022-11-21T05:26:02.844Z,3.88
2022-11-21T05:27:02.774Z,3.87
2022-11-21T05:28:02.772Z,4.01
2022-11-21T05:29:02.756Z,3.99
2022-11-21T05:30:02.735Z,3.94
2022-11-21T05:31:02.740Z,3.96
2022-11-21T05:32:02.787Z,3.96
2022-11-21T05:33:02.695Z,3.91
2022-11-21T05:34:02.687Z,3.94
2022-11-21T05:35:03.675Z,3.99
2022-11-21T05:36:02.652Z,4.04
2022-11-21T05:37:02.663Z,4.01
2022-11-21T05:38:02.852Z,3.99
2022-11-21T05:39:02.630Z,4.02
2022-11-21T05:40:02.612Z,3.99
2022-11-21T05:41:02.611Z,4.04
2022-11-21T05:42:03.353Z,3.99
2022-11-21T05:43:02.581Z,4.01
2022-11-21T05:44:02.810Z,4.08
2022-11-21T05:45:02.605Z,3.99
2022-11-21T05:46:02.541Z,4.02
2022-11-21T05:47:02.564Z,4.04
2022-11-21T05:48:02.533Z,4.02
2022-11-21T05:49:02.535Z,4.02
2022-11-21T05:50:02.654Z,4.01
2022-11-21T05:51:02.494Z,4.06
2022-11-21T05:52:02.518Z,4.05
2022-11-21T05:53:02.477Z,4.10
2022-11-21T05:54:02.490Z,4.06
2022-11-21T05:55:02.470Z,4.08
2022-11-21T05:56:02.476Z,4.10
2022-11-21T05:57:02.426Z,4.08
2022-11-21T05:58:02.418Z,4.12
2022-11-21T05:59:02.410Z,4.13
2022-11-21T06:00:02.388Z,4.06
2022-11-21T06:01:02.525Z,4.20
2022-11-21T06:02:03.687Z,4.19
2022-11-21T06:03:02.407Z,4.16
2022-11-21T06:04:02.346Z,4.22
2022-11-21T06:05:02.598Z,4.24
2022-11-21T06:06:02.346Z,4.16
2022-11-21T06:07:02.434Z,4.16
2022-11-21T06:08:02.364Z,4.17
2022-11-21T06:09:02.405Z,4.30
2022-11-21T06:10:02.306Z,4.31
2022-11-21T06:11:02.266Z,4.30
2022-11-21T06:12:02.289Z,4.26
2022-11-21T06:13:02.256Z,4.32
2022-11-21T06:14:02.267Z,4.34
2022-11-21T06:15:02.262Z,4.34
2022-11-21T06:16:02.227Z,4.41
2022-11-21T06:17:02.207Z,4.41
2022-11-21T06:18:02.192Z,4.40
2022-11-21T06:19:02.170Z,4.40
2022-11-21T06:20:02.216Z,4.45
2022-11-21T06:21:02.153Z,4.44
2022-11-21T06:22:02.158Z,4.48
2022-11-21T06:23:02.155Z,4.44
2022-11-21T06:24:02.121Z,4.48
2022-11-21T06:25:02.107Z,4.45
2022-11-21T06:26:02.116Z,4.55
2022-11-21T06:27:02.108Z,4.49
2022-11-21T06:28:02.072Z,4.55
2022-11-21T06:29:02.063Z,4.56
2022-11-21T06:30:02.041Z,4.56
2022-11-21T06:31:02.073Z,4.62
2022-11-21T06:32:02.196Z,4.56
2022-11-21T06:33:02.122Z,4.60
2022-11-21T06:34:02.032Z,4.62
2022-11-21T06:35:01.992Z,4.66
2022-11-21T06:36:02.029Z,4.66
2022-11-21T06:37:01.998Z,4.62
2022-11-21T06:38:02.042Z,4.70
2022-11-21T06:39:01.957Z,4.66
2022-11-21T06:40:01.943Z,4.66
2022-11-21T06:41:02.051Z,4.62
2022-11-21T06:42:01.927Z,4.62
2022-11-21T06:43:01.920Z,4.58
2022-11-21T06:44:02.120Z,4.60
2022-11-21T06:45:01.867Z,4.66
2022-11-21T06:46:02.882Z,4.58
2022-11-21T06:47:01.971Z,4.63
2022-11-21T06:48:01.842Z,4.60
2022-11-21T06:49:01.852Z,4.55
2022-11-21T06:50:02.424Z,4.66
2022-11-21T06:51:01.845Z,4.66
2022-11-21T06:52:01.799Z,4.67
2022-11-21T06:53:01.830Z,4.67
2022-11-21T06:54:01.937Z,4.73
2022-11-21T06:55:01.764Z,4.71
2022-11-21T06:56:01.804Z,4.75
2022-11-21T06:57:01.811Z,4.75
2022-11-21T06:58:02.288Z,4.77
2022-11-21T06:59:01.921Z,4.78
2022-11-21T07:00:01.819Z,4.74
2022-11-21T07:01:01.736Z,4.80
2022-11-21T07:02:03.320Z,4.78
2022-11-21T07:03:03.132Z,4.80
2022-11-21T07:04:01.661Z,4.82
2022-11-21T07:05:01.750Z,4.77
2022-11-21T07:06:01.646Z,4.78
2022-11-21T07:07:02.030Z,4.77
2022-11-21T07:08:01.755Z,4.75
2022-11-21T07:10:02.988Z,4.70
2022-11-21T07:11:24.018Z,4.70
2022-11-21T07:12:02.722Z,4.66
2022-11-21T07:13:01.627Z,4.74
2022-11-21T07:14:06.254Z,4.66
2022-11-21T07:15:02.714Z,4.75
2022-11-21T07:16:01.565Z,4.74
2022-11-21T07:17:01.778Z,4.77
2022-11-21T07:18:01.685Z,4.75
2022-11-21T07:19:01.806Z,4.77
2022-11-21T07:20:01.672Z,4.86
2022-11-21T07:21:01.556Z,4.86
2022-11-21T07:22:01.588Z,4.87
2022-11-21T07:23:01.602Z,4.84
2022-11-21T07:24:01.702Z,4.82
2022-11-21T07:25:01.450Z,4.86
2022-11-21T07:26:01.487Z,4.90
2022-11-21T07:27:01.726Z,5.02
2022-11-21T07:28:01.418Z,5.00
2022-11-21T07:29:01.421Z,5.08
2022-11-21T07:30:01.406Z,5.02
2022-11-21T07:31:01.586Z,4.99
2022-11-21T07:32:01.563Z,5.05
2022-11-21T07:33:01.509Z,5.07
2022-11-21T07:34:01.433Z,5.05
2022-11-21T07:35:01.367Z,5.05
2022-11-21T07:36:01.783Z,5.14
2022-11-21T07:37:05.035Z,5.14
2022-11-21T07:38:01.646Z,5.11
2022-11-21T07:39:01.397Z,5.14
2022-11-21T07:40:01.577Z,5.18
2022-11-21T07:41:01.391Z,5.17
2022-11-21T07:42:01.255Z,5.15
2022-11-21T07:43:01.248Z,5.25
2022-11-21T07:44:01.923Z,5.21
2022-11-21T07:45:01.358Z,5.26
2022-11-21T07:46:01.366Z,5.33
2022-11-21T07:47:01.188Z,5.38
2022-11-21T07:48:01.184Z,5.36
2022-11-21T07:49:03.512Z,5.41
2022-11-21T07:50:01.177Z,5.43
2022-11-21T07:51:01.330Z,5.44
2022-11-21T07:52:01.171Z,5.53
2022-11-21T07:53:01.194Z,5.50
2022-11-21T07:54:01.124Z,5.56
2022-11-21T07:55:01.125Z,5.62
2022-11-21T07:56:01.287Z,5.59
2022-11-21T07:57:01.867Z,5.59
2022-11-21T07:58:01.914Z,5.62
2022-11-21T07:59:04.258Z,5.66
2022-11-21T08:00:01.048Z,5.69
2022-11-21T08:01:01.127Z,5.69
2022-11-21T08:02:02.475Z,5.71
2022-11-21T08:03:01.175Z,5.80
2022-11-21T08:04:02.108Z,5.75
2022-11-21T08:05:01.181Z,5.83
2022-11-21T08:06:01.040Z,5.82
2022-11-21T08:07:02.022Z,5.79
2022-11-21T08:08:01.115Z,5.80
2022-11-21T08:09:00.994Z,5.73
2022-11-21T08:10:00.968Z,5.69
2022-11-21T08:11:01.005Z,5.71
2022-11-21T08:12:00.956Z,5.66
2022-11-21T08:13:00.936Z,5.66
2022-11-21T08:14:00.948Z,5.72
2022-11-21T08:15:00.898Z,5.59
2022-11-21T08:16:00.865Z,5.57
2022-11-21T08:17:01.451Z,5.51
2022-11-21T08:18:00.859Z,5.46
2022-11-21T08:19:00.889Z,5.57
2022-11-21T08:20:00.888Z,5.46
2022-11-21T08:21:00.838Z,5.47
2022-11-21T08:22:00.955Z,5.46
2022-11-21T08:23:00.991Z,5.44
2022-11-21T08:24:00.760Z,5.46
2022-11-21T08:25:01.078Z,5.46
2022-11-21T08:26:00.979Z,5.46
2022-11-21T08:27:00.805Z,5.47
2022-11-21T08:28:00.795Z,5.39
2022-11-21T08:29:00.942Z,5.43
2022-11-21T08:30:00.697Z,5.46
2022-11-21T08:31:00.733Z,5.36
2022-11-21T08:32:00.862Z,5.41
2022-11-21T08:33:00.786Z,5.41
2022-11-21T08:34:00.929Z,5.44
2022-11-21T08:35:00.669Z,5.44
2022-11-21T08:36:00.829Z,5.46
2022-11-21T08:37:00.636Z,5.44
2022-11-21T08:38:00.996Z,5.54
2022-11-21T08:39:00.597Z,5.46
2022-11-21T08:40:00.675Z,5.54
2022-11-21T08:41:00.632Z,5.54
2022-11-21T08:42:00.568Z,5.65
2022-11-21T08:43:00.899Z,5.61
2022-11-21T08:44:01.312Z,5.62
2022-11-21T08:45:00.835Z,5.47
2022-11-21T08:46:00.623Z,5.65
2022-11-21T08:47:00.833Z,5.54
2022-11-21T08:48:00.544Z,5.46
2022-11-21T08:49:00.681Z,5.43
2022-11-21T08:50:08.572Z,5.46
2022-11-21T08:51:01.572Z,5.51
2022-11-21T08:52:00.799Z,5.51
2022-11-21T08:53:00.574Z,5.51
2022-11-21T08:54:00.479Z,5.47
2022-11-21T08:55:00.862Z,5.53
2022-11-21T08:56:04.127Z,5.47
2022-11-21T08:57:01.425Z,5.48
2022-11-21T08:58:00.550Z,5.39
2022-11-21T08:59:00.471Z,5.46
2022-11-21T09:00:00.686Z,5.46
2022-11-21T09:01:00.560Z,5.46
2022-11-21T09:02:02.077Z,5.46
2022-11-21T09:03:00.369Z,5.46
2022-11-21T09:04:00.324Z,5.48
2022-11-21T09:05:00.456Z,5.47
2022-11-21T09:06:00.517Z,5.56
2022-11-21T09:07:00.583Z,5.50
2022-11-21T09:08:00.801Z,5.54
2022-11-21T09:09:00.306Z,5.64
2022-11-21T09:10:00.364Z,5.65
2022-11-21T09:11:00.258Z,5.66
2022-11-21T09:12:00.359Z,5.66
2022-11-21T09:13:00.274Z,5.68
2022-11-21T09:14:00.432Z,5.79
2022-11-21T09:15:00.379Z,5.89
2022-11-21T09:16:00.193Z,5.98
2022-11-21T09:17:02.323Z,5.94
2022-11-21T09:18:00.165Z,6.11
2022-11-21T09:19:00.435Z,6.26
2022-11-21T09:20:00.411Z,6.24
2022-11-21T09:21:00.324Z,6.26
2022-11-21T09:22:00.555Z,6.19
2022-11-21T09:23:00.296Z,6.14
2022-11-21T09:24:00.143Z,6.22
2022-11-21T09:25:00.283Z,6.31
2022-11-21T09:26:00.292Z,6.33
2022-11-21T09:27:00.186Z,6.36
2022-11-21T09:28:00.067Z,6.36
2022-11-21T09:29:00.096Z,6.35
2022-11-21T09:30:00.078Z,6.30
2022-11-21T09:31:00.168Z,6.36
2022-11-21T09:32:00.492Z,6.49
2022-11-21T09:33:00.183Z,6.48
2022-11-21T09:34:00.183Z,6.51
2022-11-21T09:35:00.373Z,6.48
2022-11-21T09:35:59.991Z,6.44
2022-11-21T09:36:59.975Z,6.45
2022-11-21T09:38:00.454Z,6.54
2022-11-21T09:38:59.961Z,6.48
2022-11-21T09:40:00.019Z,6.39
2022-11-21T09:40:59.958Z,6.49
2022-11-21T09:42:00.383Z,6.36
2022-11-21T09:43:00.085Z,6.41
2022-11-21T09:44:00.601Z,6.38
2022-11-21T09:45:00.021Z,6.48
2022-11-21T09:45:59.982Z,6.44
2022-11-21T09:47:00.063Z,6.42
2022-11-21T09:48:00.321Z,6.45
2022-11-21T09:49:00.033Z,6.49
2022-11-21T09:50:00.169Z,6.59
2022-11-21T09:50:59.866Z,6.57
2022-11-21T09:51:59.824Z,6.57
2022-11-21T09:53:00.078Z,6.52
2022-11-21T09:54:00.053Z,6.67
2022-11-21T09:54:59.959Z,6.64
2022-11-21T09:55:59.887Z,6.67
2022-11-21T09:56:59.730Z,6.75
2022-11-21T09:57:59.756Z,6.77
2022-11-21T09:59:00.743Z,6.81
2022-11-21T09:59:59.690Z,6.79
2022-11-21T10:00:59.985Z,6.85
2022-11-21T10:02:01.917Z,6.89
2022-11-21T10:02:59.810Z,6.82
2022-11-21T10:03:59.971Z,6.95
2022-11-21T10:05:00.461Z,6.96
2022-11-21T10:05:59.732Z,7.06
2022-11-21T10:06:59.773Z,7.05
2022-11-21T10:07:59.916Z,7.02
2022-11-21T10:08:59.725Z,7.10
2022-11-21T10:09:59.584Z,7.18
2022-11-21T10:11:01.601Z,7.13
2022-11-21T10:12:00.753Z,7.13
2022-11-21T10:12:59.635Z,7.15
2022-11-21T10:13:59.617Z,7.17
2022-11-21T10:14:59.655Z,7.18
2022-11-21T10:15:59.614Z,7.24
2022-11-21T10:16:59.599Z,7.29
2022-11-21T10:17:59.571Z,7.23
2022-11-21T10:18:59.637Z,7.21
2022-11-21T10:19:59.881Z,7.32
2022-11-21T10:20:59.538Z,7.28
2022-11-21T10:21:59.601Z,7.36
2022-11-21T10:22:59.499Z,7.24
2022-11-21T10:23:59.592Z,7.28
2022-11-21T10:24:59.434Z,7.31
2022-11-21T10:25:59.439Z,7.29
2022-11-21T10:26:59.691Z,7.21
2022-11-21T10:28:00.061Z,7.21
2022-11-21T10:28:59.619Z,7.28
2022-11-21T10:29:59.973Z,7.23
2022-11-21T10:30:59.498Z,7.29
2022-11-21T10:31:59.396Z,7.24
2022-11-21T10:32:59.487Z,7.24
2022-11-21T10:33:59.566Z,7.29
2022-11-21T10:34:59.380Z,7.11
2022-11-21T10:35:59.487Z,7.21
2022-11-21T10:36:59.494Z,7.18
2022-11-21T10:37:59.454Z,7.14
2022-11-21T10:38:59.353Z,7.07
2022-11-21T10:39:59.404Z,7.14
2022-11-21T10:40:59.210Z,7.14
2022-11-21T10:41:59.230Z,7.06
2022-11-21T10:42:59.259Z,7.02
2022-11-21T10:43:59.789Z,7.11
2022-11-21T10:44:59.356Z,7.02
2022-11-21T10:45:59.307Z,6.96
2022-11-21T10:46:59.174Z,7.00
2022-11-21T10:48:02.593Z,6.97
2022-11-21T10:49:00.335Z,6.88
2022-11-21T10:49:59.179Z,6.87
2022-11-21T10:50:59.138Z,6.93
2022-11-21T10:51:59.441Z,6.89
2022-11-21T10:52:59.078Z,6.95
2022-11-21T10:54:03.256Z,6.95
2022-11-21T10:55:00.163Z,7.00
2022-11-21T10:55:59.039Z,7.00
2022-11-21T10:56:59.888Z,7.02
2022-11-21T10:57:59.020Z,6.96
2022-11-21T10:59:00.077Z,6.96
2022-11-21T10:59:58.998Z,6.85
2022-11-21T11:00:59.068Z,6.92
2022-11-21T11:02:05.901Z,6.89
2022-11-21T11:02:58.973Z,6.89
2022-11-21T11:04:20.986Z,6.93
2022-11-21T11:04:59.966Z,6.96
2022-11-21T11:05:58.956Z,6.85
2022-11-21T11:06:58.952Z,6.95
2022-11-21T11:07:58.904Z,6.85
2022-11-21T11:08:59.048Z,6.95
2022-11-21T11:09:59.006Z,6.89
2022-11-21T11:10:59.398Z,6.92
2022-11-21T11:11:58.932Z,7.02
2022-11-21T11:13:01.657Z,7.00
2022-11-21T11:13:58.863Z,7.00
2022-11-21T11:14:59.400Z,7.06
2022-11-21T11:15:58.820Z,6.96
2022-11-21T11:16:58.807Z,7.03
2022-11-21T11:18:01.525Z,7.03
2022-11-21T11:18:59.875Z,6.95
2022-11-21T11:19:58.788Z,7.00
2022-11-21T11:20:58.843Z,6.99
2022-11-21T11:21:58.768Z,6.99
2022-11-21T11:22:59.429Z,7.05
2022-11-21T11:23:58.725Z,7.11
2022-11-21T11:25:00.776Z,7.06
2022-11-21T11:25:58.695Z,7.10
2022-11-21T11:26:58.809Z,7.20
2022-11-21T11:28:01.451Z,7.14
2022-11-21T11:28:58.660Z,7.13
2022-11-21T11:29:58.664Z,7.20
2022-11-21T11:30:59.091Z,7.28
2022-11-21T11:31:58.641Z,7.31
2022-11-21T11:32:58.615Z,7.23
2022-11-21T11:33:58.696Z,7.33
2022-11-21T11:34:58.640Z,7.38
2022-11-21T11:35:58.592Z,7.40
2022-11-21T11:36:58.977Z,7.39
2022-11-21T11:37:58.640Z,7.35
2022-11-21T11:38:58.597Z,7.39
2022-11-21T11:39:58.551Z,7.51
2022-11-21T11:40:58.532Z,7.35
2022-11-21T11:41:58.522Z,7.48
2022-11-21T11:42:58.529Z,7.38
2022-11-21T11:43:59.410Z,7.51
2022-11-21T11:44:58.482Z,7.47
2022-11-21T11:45:58.501Z,7.42
2022-11-21T11:46:58.451Z,7.45
2022-11-21T11:47:58.456Z,7.48
2022-11-21T11:49:17.905Z,7.42
2022-11-21T11:49:59.424Z,7.39
2022-11-21T11:50:58.423Z,7.39
2022-11-21T11:51:58.422Z,7.39
2022-11-21T11:52:58.426Z,7.40
2022-11-21T11:54:01.088Z,7.47
2022-11-21T11:54:58.399Z,7.48
2022-11-21T11:55:58.522Z,7.48
2022-11-21T11:56:58.338Z,7.47
2022-11-21T11:57:58.917Z,7.47
2022-11-21T11:58:58.349Z,7.51
2022-11-21T11:59:58.325Z,7.56
2022-11-21T12:00:58.980Z,7.47
2022-11-21T12:01:58.634Z,7.60
2022-11-21T12:02:58.290Z,7.58
2022-11-21T12:03:58.467Z,7.53
2022-11-21T12:04:58.265Z,7.60
2022-11-21T12:05:58.360Z,7.57
2022-11-21T12:08:40.067Z,7.54
2022-11-21T12:08:59.265Z,7.54
2022-11-21T12:09:58.205Z,7.56
2022-11-21T12:10:58.306Z,7.53
2022-11-21T12:11:58.188Z,7.56
2022-11-21T12:12:58.199Z,7.54
2022-11-21T12:13:58.251Z,7.56
2022-11-21T12:14:58.155Z,7.56
2022-11-21T12:16:04.112Z,7.53
2022-11-21T12:16:59.117Z,7.54
2022-11-21T12:17:58.105Z,7.50
2022-11-21T12:18:58.157Z,7.53
2022-11-21T12:19:58.148Z,7.50
2022-11-21T12:20:59.323Z,7.50
2022-11-21T12:21:58.056Z,7.43
2022-11-21T12:22:58.044Z,7.39
2022-11-21T12:23:58.068Z,7.38
2022-11-21T12:24:58.156Z,7.28
2022-11-21T12:25:58.095Z,7.38
2022-11-21T12:26:58.011Z,7.28
2022-11-21T12:27:58.044Z,7.25
2022-11-21T12:28:57.992Z,7.13
2022-11-21T12:29:57.976Z,7.15
2022-11-21T12:30:57.974Z,7.18
2022-11-21T12:31:57.951Z,7.03
2022-11-21T12:32:59.439Z,7.02
2022-11-21T12:33:57.941Z,7.00
2022-11-21T12:34:57.910Z,6.96
2022-11-21T12:36:14.190Z,6.99
2022-11-21T12:36:58.989Z,7.06
2022-11-21T12:37:57.886Z,6.89
2022-11-21T12:38:57.868Z,7.02
2022-11-21T12:39:58.416Z,7.05
2022-11-21T12:40:59.142Z,7.06
2022-11-21T12:41:57.845Z,7.06
2022-11-21T12:42:58.001Z,7.20
2022-11-21T12:43:57.988Z,7.17
2022-11-21T12:44:57.882Z,7.13
2022-11-21T12:45:57.937Z,7.20
2022-11-21T12:46:57.846Z,7.17
2022-11-21T12:47:57.782Z,7.29
2022-11-21T12:48:57.811Z,7.28
2022-11-21T12:49:57.740Z,7.28
2022-11-21T12:50:58.915Z,7.20
2022-11-21T12:51:57.718Z,7.29
2022-11-21T12:52:57.724Z,7.25
2022-11-21T12:53:57.730Z,7.29
2022-11-21T12:54:57.779Z,7.21
2022-11-21T12:55:57.710Z,7.31
2022-11-21T12:56:57.693Z,7.25
2022-11-21T12:57:57.690Z,7.29
2022-11-21T12:58:57.639Z,7.25
2022-11-21T12:59:57.636Z,7.25
2022-11-21T13:00:59.034Z,7.24
2022-11-21T13:01:57.754Z,7.31
2022-11-21T13:02:57.622Z,7.31
2022-11-21T13:03:57.630Z,7.29
2022-11-21T13:04:57.584Z,7.24
2022-11-21T13:05:57.560Z,7.13
2022-11-21T13:06:57.573Z,7.24
2022-11-21T13:07:57.553Z,7.17
2022-11-21T13:08:57.581Z,7.24
2022-11-21T13:09:57.570Z,7.25
2022-11-21T13:10:57.606Z,7.25
2022-11-21T13:11:57.543Z,7.07
2022-11-21T13:12:57.572Z,7.15
2022-11-21T13:13:57.481Z,7.15
2022-11-21T13:14:57.460Z,7.18
2022-11-21T13:15:57.458Z,7.11
2022-11-21T13:16:57.468Z,7.13
2022-11-21T13:17:57.427Z,7.06
2022-11-21T13:18:57.466Z,7.05
2022-11-21T13:19:57.411Z,7.05